Terminal Aerodrome Forecast
Issued by NWS Charleston, WV

Current Version | Previous Version | Text Only | Print | Product List | Glossary Off
Versions: 1 2 3 4 5 6 7 8 9 10 11 12 13 14 15 16 17 18 19 20 21 22 23 24 25

000
FTUS41 KRLX 171100
TAFBKW
TAF
KBKW 171132Z 1712/1812 29010G16KT 6SM -DZ OVC008
      TEMPO 1712/1715 4SM -DZ BKN005
     FM171900 29010G15KT P6SM OVC017
     FM180500 29009KT P6SM OVC010=

USA.gov is the U.S. government's official web portal to all federal, state and local government web resources and services.